sensor_id;sensor_type;location;lat;lon;timestamp;P1;durP1;ratioP1;P2;durP2;ratioP2
13731;SDS011;6937;56.096;12.664;2022-07-04T00:00:09;4.05;;;1.83;;
13731;SDS011;6937;56.096;12.664;2022-07-04T00:02:35;6.55;;;2.15;;
13731;SDS011;6937;56.096;12.664;2022-07-04T00:05:02;6.35;;;1.80;;
13731;SDS011;6937;56.096;12.664;2022-07-04T00:07:27;4.47;;;1.90;;
13731;SDS011;6937;56.096;12.664;2022-07-04T00:09:53;3.20;;;1.75;;
13731;SDS011;6937;56.096;12.664;2022-07-04T00:12:18;6.70;;;1.83;;
13731;SDS011;6937;56.096;12.664;2022-07-04T00:14:44;4.72;;;1.95;;
13731;SDS011;6937;56.096;12.664;2022-07-04T00:17:09;6.90;;;2.10;;
13731;SDS011;6937;56.096;12.664;2022-07-04T00:19:35;5.07;;;1.92;;
13731;SDS011;6937;56.096;12.664;2022-07-04T00:22:00;4.68;;;1.73;;
13731;SDS011;6937;56.096;12.664;2022-07-04T00:24:26;5.47;;;2.00;;
13731;SDS011;6937;56.096;12.664;2022-07-04T00:26:51;3.78;;;1.90;;
13731;SDS011;6937;56.096;12.664;2022-07-04T00:29:17;6.05;;;2.10;;
13731;SDS011;6937;56.096;12.664;2022-07-04T00:31:42;3.75;;;1.98;;
13731;SDS011;6937;56.096;12.664;2022-07-04T00:34:08;3.70;;;1.52;;
13731;SDS011;6937;56.096;12.664;2022-07-04T00:36:34;7.15;;;2.30;;
13731;SDS011;6937;56.096;12.664;2022-07-04T00:38:59;4.53;;;1.83;;
13731;SDS011;6937;56.096;12.664;2022-07-04T00:41:25;7.28;;;2.67;;
13731;SDS011;6937;56.096;12.664;2022-07-04T00:44:01;6.38;;;2.08;;
13731;SDS011;6937;56.096;12.664;2022-07-04T00:46:28;5.28;;;2.00;;
13731;SDS011;6937;56.096;12.664;2022-07-04T00:48:53;6.78;;;2.58;;
13731;SDS011;6937;56.096;12.664;2022-07-04T00:51:19;3.38;;;1.83;;
13731;SDS011;6937;56.096;12.664;2022-07-04T00:53:45;4.45;;;1.67;;
13731;SDS011;6937;56.096;12.664;2022-07-04T00:56:10;7.10;;;2.58;;
13731;SDS011;6937;56.096;12.664;2022-07-04T00:58:36;7.20;;;2.35;;
13731;SDS011;6937;56.096;12.664;2022-07-04T01:01:02;5.03;;;2.20;;
13731;SDS011;6937;56.096;12.664;2022-07-04T01:03:27;5.57;;;2.35;;
13731;SDS011;6937;56.096;12.664;2022-07-04T01:05:53;5.03;;;2.25;;
13731;SDS011;6937;56.096;12.664;2022-07-04T01:08:19;4.78;;;2.50;;
13731;SDS011;6937;56.096;12.664;2022-07-04T01:10:44;4.80;;;2.00;;
13731;SDS011;6937;56.096;12.664;2022-07-04T01:13:18;4.07;;;1.98;;
13731;SDS011;6937;56.096;12.664;2022-07-04T01:15:44;5.40;;;2.85;;
13731;SDS011;6937;56.096;12.664;2022-07-04T01:18:10;6.03;;;2.42;;
13731;SDS011;6937;56.096;12.664;2022-07-04T01:20:35;9.70;;;2.92;;
13731;SDS011;6937;56.096;12.664;2022-07-04T01:23:02;5.28;;;2.00;;
13731;SDS011;6937;56.096;12.664;2022-07-04T01:25:27;4.88;;;2.35;;
13731;SDS011;6937;56.096;12.664;2022-07-04T01:27:53;6.13;;;2.40;;
13731;SDS011;6937;56.096;12.664;2022-07-04T01:30:18;5.13;;;2.25;;
13731;SDS011;6937;56.096;12.664;2022-07-04T01:32:43;4.63;;;2.20;;
13731;SDS011;6937;56.096;12.664;2022-07-04T01:35:09;4.32;;;1.90;;
13731;SDS011;6937;56.096;12.664;2022-07-04T01:37:35;6.07;;;2.28;;
13731;SDS011;6937;56.096;12.664;2022-07-04T01:40:01;3.90;;;2.00;;
13731;SDS011;6937;56.096;12.664;2022-07-04T01:42:27;5.50;;;2.10;;
13731;SDS011;6937;56.096;12.664;2022-07-04T01:44:52;5.07;;;2.00;;
13731;SDS011;6937;56.096;12.664;2022-07-04T01:47:17;6.53;;;2.20;;
13731;SDS011;6937;56.096;12.664;2022-07-04T01:49:43;3.58;;;1.95;;
13731;SDS011;6937;56.096;12.664;2022-07-04T01:52:08;4.40;;;2.55;;
13731;SDS011;6937;56.096;12.664;2022-07-04T01:54:34;4.18;;;2.25;;
13731;SDS011;6937;56.096;12.664;2022-07-04T01:56:59;5.25;;;2.00;;
13731;SDS011;6937;56.096;12.664;2022-07-04T01:59:24;4.28;;;2.10;;
13731;SDS011;6937;56.096;12.664;2022-07-04T02:02:10;5.50;;;2.30;;
13731;SDS011;6937;56.096;12.664;2022-07-04T02:04:35;3.63;;;2.22;;
13731;SDS011;6937;56.096;12.664;2022-07-04T02:07:00;6.18;;;2.35;;
13731;SDS011;6937;56.096;12.664;2022-07-04T02:09:26;4.28;;;2.00;;
13731;SDS011;6937;56.096;12.664;2022-07-04T02:11:53;4.53;;;2.33;;
13731;SDS011;6937;56.096;12.664;2022-07-04T02:14:37;3.75;;;2.05;;
13731;SDS011;6937;56.096;12.664;2022-07-04T02:17:05;3.47;;;2.20;;
13731;SDS011;6937;56.096;12.664;2022-07-04T02:19:30;4.80;;;2.25;;
13731;SDS011;6937;56.096;12.664;2022-07-04T02:21:56;4.53;;;2.03;;
13731;SDS011;6937;56.096;12.664;2022-07-04T02:24:21;4.50;;;1.80;;
13731;SDS011;6937;56.096;12.664;2022-07-04T02:26:47;3.05;;;1.92;;
13731;SDS011;6937;56.096;12.664;2022-07-04T02:29:13;3.33;;;1.95;;
13731;SDS011;6937;56.096;12.664;2022-07-04T02:31:39;3.08;;;1.70;;
13731;SDS011;6937;56.096;12.664;2022-07-04T02:34:04;3.25;;;1.80;;
13731;SDS011;6937;56.096;12.664;2022-07-04T02:36:30;4.57;;;1.90;;
13731;SDS011;6937;56.096;12.664;2022-07-04T02:38:55;3.13;;;1.50;;
13731;SDS011;6937;56.096;12.664;2022-07-04T02:41:20;4.20;;;1.88;;
13731;SDS011;6937;56.096;12.664;2022-07-04T02:43:46;3.05;;;1.80;;
13731;SDS011;6937;56.096;12.664;2022-07-04T02:46:11;2.55;;;1.58;;
13731;SDS011;6937;56.096;12.664;2022-07-04T02:48:36;2.90;;;1.50;;
13731;SDS011;6937;56.096;12.664;2022-07-04T02:51:02;1.88;;;1.60;;
13731;SDS011;6937;56.096;12.664;2022-07-04T02:53:27;2.50;;;1.60;;
13731;SDS011;6937;56.096;12.664;2022-07-04T02:55:53;1.77;;;1.30;;
13731;SDS011;6937;56.096;12.664;2022-07-04T02:58:18;2.92;;;1.40;;
13731;SDS011;6937;56.096;12.664;2022-07-04T03:00:43;2.30;;;1.20;;
13731;SDS011;6937;56.096;12.664;2022-07-04T03:03:09;1.35;;;1.00;;
13731;SDS011;6937;56.096;12.664;2022-07-04T03:05:34;1.38;;;1.00;;
13731;SDS011;6937;56.096;12.664;2022-07-04T03:08:00;0.80;;;0.80;;
13731;SDS011;6937;56.096;12.664;2022-07-04T03:10:25;1.90;;;1.00;;
13731;SDS011;6937;56.096;12.664;2022-07-04T03:12:50;1.05;;;0.90;;
13731;SDS011;6937;56.096;12.664;2022-07-04T03:15:16;1.45;;;1.00;;
13731;SDS011;6937;56.096;12.664;2022-07-04T03:17:41;0.88;;;0.88;;
13731;SDS011;6937;56.096;12.664;2022-07-04T03:20:06;1.55;;;1.40;;
13731;SDS011;6937;56.096;12.664;2022-07-04T03:22:32;2.33;;;1.25;;
13731;SDS011;6937;56.096;12.664;2022-07-04T03:24:58;2.15;;;0.95;;
13731;SDS011;6937;56.096;12.664;2022-07-04T03:27:23;1.42;;;1.10;;
13731;SDS011;6937;56.096;12.664;2022-07-04T03:29:48;1.10;;;1.10;;
13731;SDS011;6937;56.096;12.664;2022-07-04T03:32:14;2.70;;;1.30;;
13731;SDS011;6937;56.096;12.664;2022-07-04T03:34:39;2.28;;;1.38;;
13731;SDS011;6937;56.096;12.664;2022-07-04T03:37:04;3.58;;;1.70;;
13731;SDS011;6937;56.096;12.664;2022-07-04T03:39:30;3.17;;;1.90;;
13731;SDS011;6937;56.096;12.664;2022-07-04T03:41:55;2.28;;;1.92;;
13731;SDS011;6937;56.096;12.664;2022-07-04T03:44:20;2.20;;;1.90;;
13731;SDS011;6937;56.096;12.664;2022-07-04T03:46:46;3.42;;;2.13;;
13731;SDS011;6937;56.096;12.664;2022-07-04T03:49:11;2.00;;;1.90;;
13731;SDS011;6937;56.096;12.664;2022-07-04T03:51:37;3.70;;;2.00;;
13731;SDS011;6937;56.096;12.664;2022-07-04T03:54:02;3.75;;;2.50;;
13731;SDS011;6937;56.096;12.664;2022-07-04T03:56:27;3.42;;;2.30;;
13731;SDS011;6937;56.096;12.664;2022-07-04T03:58:53;2.85;;;2.13;;
13731;SDS011;6937;56.096;12.664;2022-07-04T04:01:19;3.90;;;2.20;;
13731;SDS011;6937;56.096;12.664;2022-07-04T04:03:44;3.10;;;2.45;;
13731;SDS011;6937;56.096;12.664;2022-07-04T04:06:29;2.80;;;2.40;;
13731;SDS011;6937;56.096;12.664;2022-07-04T04:08:55;3.40;;;2.50;;
13731;SDS011;6937;56.096;12.664;2022-07-04T04:11:20;3.17;;;2.67;;
13731;SDS011;6937;56.096;12.664;2022-07-04T04:13:45;4.65;;;2.58;;
13731;SDS011;6937;56.096;12.664;2022-07-04T04:16:11;3.50;;;2.33;;
13731;SDS011;6937;56.096;12.664;2022-07-04T04:18:36;3.92;;;2.42;;
13731;SDS011;6937;56.096;12.664;2022-07-04T04:21:02;2.92;;;2.63;;
13731;SDS011;6937;56.096;12.664;2022-07-04T04:23:28;3.63;;;2.67;;
13731;SDS011;6937;56.096;12.664;2022-07-04T04:25:53;3.03;;;2.72;;
13731;SDS011;6937;56.096;12.664;2022-07-04T04:28:19;3.40;;;2.80;;
13731;SDS011;6937;56.096;12.664;2022-07-04T04:30:44;3.25;;;2.70;;
13731;SDS011;6937;56.096;12.664;2022-07-04T04:33:10;3.63;;;3.10;;
13731;SDS011;6937;56.096;12.664;2022-07-04T04:35:35;5.10;;;3.10;;
13731;SDS011;6937;56.096;12.664;2022-07-04T04:38:00;3.45;;;3.15;;
13731;SDS011;6937;56.096;12.664;2022-07-04T04:40:26;4.82;;;3.00;;
13731;SDS011;6937;56.096;12.664;2022-07-04T04:42:51;3.90;;;3.05;;
13731;SDS011;6937;56.096;12.664;2022-07-04T04:45:16;4.55;;;3.40;;
13731;SDS011;6937;56.096;12.664;2022-07-04T04:47:42;4.80;;;3.33;;
13731;SDS011;6937;56.096;12.664;2022-07-04T04:50:08;4.20;;;3.03;;
13731;SDS011;6937;56.096;12.664;2022-07-04T04:52:36;6.18;;;2.80;;
13731;SDS011;6937;56.096;12.664;2022-07-04T04:55:11;5.97;;;3.08;;
13731;SDS011;6937;56.096;12.664;2022-07-04T04:57:36;4.80;;;3.25;;
13731;SDS011;6937;56.096;12.664;2022-07-04T05:00:02;3.03;;;2.83;;
13731;SDS011;6937;56.096;12.664;2022-07-04T05:02:29;4.78;;;3.25;;
13731;SDS011;6937;56.096;12.664;2022-07-04T05:04:55;4.85;;;2.88;;
13731;SDS011;6937;56.096;12.664;2022-07-04T05:07:20;3.63;;;2.75;;
13731;SDS011;6937;56.096;12.664;2022-07-04T05:09:46;5.65;;;2.97;;
13731;SDS011;6937;56.096;12.664;2022-07-04T05:12:11;7.20;;;3.03;;
13731;SDS011;6937;56.096;12.664;2022-07-04T05:14:36;5.25;;;2.95;;
13731;SDS011;6937;56.096;12.664;2022-07-04T05:17:02;6.80;;;3.40;;
13731;SDS011;6937;56.096;12.664;2022-07-04T05:19:28;3.92;;;3.35;;
13731;SDS011;6937;56.096;12.664;2022-07-04T05:21:54;6.78;;;2.88;;
13731;SDS011;6937;56.096;12.664;2022-07-04T05:24:19;3.92;;;2.80;;
13731;SDS011;6937;56.096;12.664;2022-07-04T05:26:45;3.90;;;2.90;;
13731;SDS011;6937;56.096;12.664;2022-07-04T05:29:10;5.15;;;3.00;;
13731;SDS011;6937;56.096;12.664;2022-07-04T05:31:36;3.40;;;3.05;;
13731;SDS011;6937;56.096;12.664;2022-07-04T05:34:01;5.00;;;2.60;;
13731;SDS011;6937;56.096;12.664;2022-07-04T05:36:27;5.22;;;2.92;;
13731;SDS011;6937;56.096;12.664;2022-07-04T05:38:52;5.55;;;2.78;;
13731;SDS011;6937;56.096;12.664;2022-07-04T05:41:18;5.93;;;3.08;;
13731;SDS011;6937;56.096;12.664;2022-07-04T05:43:43;5.03;;;2.85;;
13731;SDS011;6937;56.096;12.664;2022-07-04T05:46:09;4.53;;;2.90;;
13731;SDS011;6937;56.096;12.664;2022-07-04T05:48:34;3.75;;;2.60;;
13731;SDS011;6937;56.096;12.664;2022-07-04T05:51:00;4.60;;;2.40;;
13731;SDS011;6937;56.096;12.664;2022-07-04T05:53:27;4.10;;;2.42;;
13731;SDS011;6937;56.096;12.664;2022-07-04T05:55:52;4.65;;;2.50;;
13731;SDS011;6937;56.096;12.664;2022-07-04T05:58:17;7.55;;;2.70;;
13731;SDS011;6937;56.096;12.664;2022-07-04T06:00:43;6.18;;;2.40;;
13731;SDS011;6937;56.096;12.664;2022-07-04T06:03:08;5.72;;;2.35;;
13731;SDS011;6937;56.096;12.664;2022-07-04T06:05:34;5.75;;;2.42;;
13731;SDS011;6937;56.096;12.664;2022-07-04T06:07:59;4.45;;;2.03;;
13731;SDS011;6937;56.096;12.664;2022-07-04T06:10:26;4.68;;;2.17;;
13731;SDS011;6937;56.096;12.664;2022-07-04T06:12:52;6.53;;;2.25;;
13731;SDS011;6937;56.096;12.664;2022-07-04T06:15:17;6.93;;;2.13;;
13731;SDS011;6937;56.096;12.664;2022-07-04T06:17:43;5.50;;;2.17;;
13731;SDS011;6937;56.096;12.664;2022-07-04T06:20:08;3.22;;;1.70;;
13731;SDS011;6937;56.096;12.664;2022-07-04T06:25:09;4.00;;;1.30;;
13731;SDS011;6937;56.096;12.664;2022-07-04T06:27:39;4.63;;;1.58;;
13731;SDS011;6937;56.096;12.664;2022-07-04T06:30:06;3.95;;;1.55;;
13731;SDS011;6937;56.096;12.664;2022-07-04T06:32:42;3.95;;;1.52;;
13731;SDS011;6937;56.096;12.664;2022-07-04T06:35:07;4.78;;;1.73;;
13731;SDS011;6937;56.096;12.664;2022-07-04T06:37:51;4.10;;;1.73;;
13731;SDS011;6937;56.096;12.664;2022-07-04T06:40:17;3.50;;;1.30;;
13731;SDS011;6937;56.096;12.664;2022-07-04T06:42:42;3.10;;;1.33;;
13731;SDS011;6937;56.096;12.664;2022-07-04T06:45:08;2.28;;;1.27;;
13731;SDS011;6937;56.096;12.664;2022-07-04T06:47:34;3.20;;;1.30;;
13731;SDS011;6937;56.096;12.664;2022-07-04T06:49:59;2.40;;;1.10;;
13731;SDS011;6937;56.096;12.664;2022-07-04T06:52:24;3.17;;;1.50;;
13731;SDS011;6937;56.096;12.664;2022-07-04T06:54:50;4.00;;;1.73;;
13731;SDS011;6937;56.096;12.664;2022-07-04T06:57:15;2.88;;;1.33;;
13731;SDS011;6937;56.096;12.664;2022-07-04T06:59:40;3.88;;;1.40;;
13731;SDS011;6937;56.096;12.664;2022-07-04T07:02:06;4.70;;;1.70;;
13731;SDS011;6937;56.096;12.664;2022-07-04T07:04:31;2.95;;;1.63;;
13731;SDS011;6937;56.096;12.664;2022-07-04T07:06:56;4.05;;;1.50;;
13731;SDS011;6937;56.096;12.664;2022-07-04T07:09:22;3.47;;;1.70;;
13731;SDS011;6937;56.096;12.664;2022-07-04T07:11:47;3.10;;;1.60;;
13731;SDS011;6937;56.096;12.664;2022-07-04T07:14:12;2.22;;;1.30;;
13731;SDS011;6937;56.096;12.664;2022-07-04T07:16:38;3.42;;;1.40;;
13731;SDS011;6937;56.096;12.664;2022-07-04T07:19:03;2.65;;;1.20;;
13731;SDS011;6937;56.096;12.664;2022-07-04T07:21:29;2.25;;;1.30;;
13731;SDS011;6937;56.096;12.664;2022-07-04T07:23:54;2.65;;;1.25;;
13731;SDS011;6937;56.096;12.664;2022-07-04T07:26:20;2.75;;;1.50;;
13731;SDS011;6937;56.096;12.664;2022-07-04T07:28:45;3.53;;;1.45;;
13731;SDS011;6937;56.096;12.664;2022-07-04T07:31:11;2.92;;;1.13;;
13731;SDS011;6937;56.096;12.664;2022-07-04T07:33:37;4.20;;;1.60;;
13731;SDS011;6937;56.096;12.664;2022-07-04T07:36:02;7.05;;;1.30;;
13731;SDS011;6937;56.096;12.664;2022-07-04T07:38:28;3.47;;;1.30;;
13731;SDS011;6937;56.096;12.664;2022-07-04T07:40:54;4.43;;;1.52;;
13731;SDS011;6937;56.096;12.664;2022-07-04T07:43:19;2.30;;;1.38;;
13731;SDS011;6937;56.096;12.664;2022-07-04T07:45:45;4.70;;;1.55;;
13731;SDS011;6937;56.096;12.664;2022-07-04T07:48:10;3.55;;;1.33;;
13731;SDS011;6937;56.096;12.664;2022-07-04T07:50:35;4.88;;;1.60;;
13731;SDS011;6937;56.096;12.664;2022-07-04T07:53:01;5.00;;;1.60;;
13731;SDS011;6937;56.096;12.664;2022-07-04T07:55:27;3.15;;;1.35;;
13731;SDS011;6937;56.096;12.664;2022-07-04T07:57:52;4.97;;;1.67;;
13731;SDS011;6937;56.096;12.664;2022-07-04T08:00:18;4.43;;;1.92;;
13731;SDS011;6937;56.096;12.664;2022-07-04T08:02:44;6.13;;;2.10;;
13731;SDS011;6937;56.096;12.664;2022-07-04T08:05:28;2.92;;;1.55;;
13731;SDS011;6937;56.096;12.664;2022-07-04T08:07:53;3.97;;;1.67;;
13731;SDS011;6937;56.096;12.664;2022-07-04T08:10:18;5.07;;;1.65;;
13731;SDS011;6937;56.096;12.664;2022-07-04T08:12:44;5.47;;;1.45;;
13731;SDS011;6937;56.096;12.664;2022-07-04T08:15:10;3.83;;;1.67;;
13731;SDS011;6937;56.096;12.664;2022-07-04T08:17:35;3.08;;;1.15;;
13731;SDS011;6937;56.096;12.664;2022-07-04T08:20:01;3.13;;;1.20;;
13731;SDS011;6937;56.096;12.664;2022-07-04T08:22:28;6.00;;;1.33;;
13731;SDS011;6937;56.096;12.664;2022-07-04T08:24:53;3.28;;;1.08;;
13731;SDS011;6937;56.096;12.664;2022-07-04T08:27:19;2.38;;;0.90;;
13731;SDS011;6937;56.096;12.664;2022-07-04T08:29:45;3.60;;;1.10;;
13731;SDS011;6937;56.096;12.664;2022-07-04T08:32:10;1.73;;;0.90;;
13731;SDS011;6937;56.096;12.664;2022-07-04T08:34:36;2.97;;;1.20;;
13731;SDS011;6937;56.096;12.664;2022-07-04T08:37:01;2.72;;;1.10;;
13731;SDS011;6937;56.096;12.664;2022-07-04T08:39:27;4.43;;;1.23;;
13731;SDS011;6937;56.096;12.664;2022-07-04T08:41:52;3.30;;;1.58;;
13731;SDS011;6937;56.096;12.664;2022-07-04T08:44:21;6.15;;;1.20;;
13731;SDS011;6937;56.096;12.664;2022-07-04T08:46:48;3.38;;;0.98;;
13731;SDS011;6937;56.096;12.664;2022-07-04T08:49:18;2.38;;;0.95;;
13731;SDS011;6937;56.096;12.664;2022-07-04T08:51:52;1.85;;;1.10;;
13731;SDS011;6937;56.096;12.664;2022-07-04T08:54:24;2.28;;;0.73;;
13731;SDS011;6937;56.096;12.664;2022-07-04T08:57:09;1.58;;;0.77;;
13731;SDS011;6937;56.096;12.664;2022-07-04T08:59:53;2.25;;;0.70;;
13731;SDS011;6937;56.096;12.664;2022-07-04T09:02:20;3.33;;;1.10;;
13731;SDS011;6937;56.096;12.664;2022-07-04T09:04:47;2.22;;;0.70;;
13731;SDS011;6937;56.096;12.664;2022-07-04T09:07:14;1.48;;;0.60;;
13731;SDS011;6937;56.096;12.664;2022-07-04T09:09:40;2.65;;;0.90;;
13731;SDS011;6937;56.096;12.664;2022-07-04T09:12:06;3.10;;;0.80;;
13731;SDS011;6937;56.096;12.664;2022-07-04T09:14:33;2.10;;;1.05;;
13731;SDS011;6937;56.096;12.664;2022-07-04T09:16:59;3.92;;;0.80;;
13731;SDS011;6937;56.096;12.664;2022-07-04T09:19:25;2.38;;;1.00;;
13731;SDS011;6937;56.096;12.664;2022-07-04T09:21:50;1.05;;;0.60;;
13731;SDS011;6937;56.096;12.664;2022-07-04T09:24:16;1.73;;;0.60;;
13731;SDS011;6937;56.096;12.664;2022-07-04T09:27:01;2.45;;;0.90;;
13731;SDS011;6937;56.096;12.664;2022-07-04T09:29:26;1.90;;;0.60;;
13731;SDS011;6937;56.096;12.664;2022-07-04T09:31:52;2.30;;;0.80;;
13731;SDS011;6937;56.096;12.664;2022-07-04T09:34:17;1.88;;;0.60;;
13731;SDS011;6937;56.096;12.664;2022-07-04T09:36:43;2.15;;;0.80;;
13731;SDS011;6937;56.096;12.664;2022-07-04T09:39:13;3.50;;;0.90;;
13731;SDS011;6937;56.096;12.664;2022-07-04T09:44:25;1.10;;;0.60;;
13731;SDS011;6937;56.096;12.664;2022-07-04T09:50:08;1.08;;;0.40;;
13731;SDS011;6937;56.096;12.664;2022-07-04T09:52:45;2.53;;;0.80;;
13731;SDS011;6937;56.096;12.664;2022-07-04T09:55:28;2.03;;;0.80;;
13731;SDS011;6937;56.096;12.664;2022-07-04T09:57:55;2.15;;;0.82;;
13731;SDS011;6937;56.096;12.664;2022-07-04T10:00:23;1.00;;;0.60;;
13731;SDS011;6937;56.096;12.664;2022-07-04T10:06:06;3.03;;;0.73;;
13731;SDS011;6937;56.096;12.664;2022-07-04T10:08:36;2.75;;;0.65;;
13731;SDS011;6937;56.096;12.664;2022-07-04T10:11:03;2.47;;;0.80;;
13731;SDS011;6937;56.096;12.664;2022-07-04T10:13:29;1.98;;;0.82;;
13731;SDS011;6937;56.096;12.664;2022-07-04T10:15:55;1.63;;;0.40;;
13731;SDS011;6937;56.096;12.664;2022-07-04T10:18:22;1.88;;;0.73;;
13731;SDS011;6937;56.096;12.664;2022-07-04T10:20:49;2.72;;;0.70;;
13731;SDS011;6937;56.096;12.664;2022-07-04T10:23:16;1.85;;;0.73;;
13731;SDS011;6937;56.096;12.664;2022-07-04T10:25:43;2.05;;;0.60;;
13731;SDS011;6937;56.096;12.664;2022-07-04T10:28:11;1.95;;;0.82;;
13731;SDS011;6937;56.096;12.664;2022-07-04T10:30:37;1.92;;;0.70;;
13731;SDS011;6937;56.096;12.664;2022-07-04T10:33:05;2.28;;;0.70;;
13731;SDS011;6937;56.096;12.664;2022-07-04T10:35:52;2.45;;;0.70;;
13731;SDS011;6937;56.096;12.664;2022-07-04T10:38:31;3.33;;;1.42;;
13731;SDS011;6937;56.096;12.664;2022-07-04T10:41:06;1.88;;;0.80;;
13731;SDS011;6937;56.096;12.664;2022-07-04T10:54:31;3.10;;;0.77;;
13731;SDS011;6937;56.096;12.664;2022-07-04T10:57:09;1.90;;;0.55;;
13731;SDS011;6937;56.096;12.664;2022-07-04T10:59:40;2.42;;;0.70;;
13731;SDS011;6937;56.096;12.664;2022-07-04T11:12:50;2.53;;;0.70;;
13731;SDS011;6937;56.096;12.664;2022-07-04T11:17:49;1.48;;;0.60;;
13731;SDS011;6937;56.096;12.664;2022-07-04T11:20:17;2.13;;;0.80;;
13731;SDS011;6937;56.096;12.664;2022-07-04T11:22:45;1.85;;;0.60;;
13731;SDS011;6937;56.096;12.664;2022-07-04T11:25:11;1.05;;;0.50;;
13731;SDS011;6937;56.096;12.664;2022-07-04T11:27:37;2.28;;;0.63;;
13731;SDS011;6937;56.096;12.664;2022-07-04T11:30:03;1.25;;;0.65;;
13731;SDS011;6937;56.096;12.664;2022-07-04T11:32:30;2.40;;;0.60;;
13731;SDS011;6937;56.096;12.664;2022-07-04T11:34:56;1.58;;;0.75;;
13731;SDS011;6937;56.096;12.664;2022-07-04T11:37:22;0.73;;;0.40;;
13731;SDS011;6937;56.096;12.664;2022-07-04T11:39:51;1.00;;;0.70;;
13731;SDS011;6937;56.096;12.664;2022-07-04T11:42:40;0.40;;;0.20;;
13731;SDS011;6937;56.096;12.664;2022-07-04T11:45:42;0.68;;;0.45;;
13731;SDS011;6937;56.096;12.664;2022-07-04T11:48:07;1.20;;;0.50;;
13731;SDS011;6937;56.096;12.664;2022-07-04T11:50:32;1.13;;;0.40;;
13731;SDS011;6937;56.096;12.664;2022-07-04T11:52:58;0.95;;;0.30;;
13731;SDS011;6937;56.096;12.664;2022-07-04T11:55:23;1.13;;;0.47;;
13731;SDS011;6937;56.096;12.664;2022-07-04T11:57:49;1.40;;;0.45;;
13731;SDS011;6937;56.096;12.664;2022-07-04T12:02:44;1.10;;;0.40;;
13731;SDS011;6937;56.096;12.664;2022-07-04T12:05:11;0.70;;;0.50;;
13731;SDS011;6937;56.096;12.664;2022-07-04T12:07:38;1.15;;;0.50;;
13731;SDS011;6937;56.096;12.664;2022-07-04T12:10:06;0.63;;;0.40;;
13731;SDS011;6937;56.096;12.664;2022-07-04T12:18:03;1.00;;;0.30;;
13731;SDS011;6937;56.096;12.664;2022-07-04T12:20:31;0.80;;;0.40;;
13731;SDS011;6937;56.096;12.664;2022-07-04T12:23:00;1.35;;;0.65;;
13731;SDS011;6937;56.096;12.664;2022-07-04T12:27:56;1.45;;;0.47;;
13731;SDS011;6937;56.096;12.664;2022-07-04T12:30:24;1.45;;;0.40;;
13731;SDS011;6937;56.096;12.664;2022-07-04T12:32:51;1.90;;;0.60;;
13731;SDS011;6937;56.096;12.664;2022-07-04T12:35:52;1.45;;;0.52;;
13731;SDS011;6937;56.096;12.664;2022-07-04T12:43:25;1.58;;;0.57;;
13731;SDS011;6937;56.096;12.664;2022-07-04T12:46:12;1.90;;;0.60;;
13731;SDS011;6937;56.096;12.664;2022-07-04T12:48:50;1.85;;;0.70;;
13731;SDS011;6937;56.096;12.664;2022-07-04T12:51:17;0.98;;;0.68;;
13731;SDS011;6937;56.096;12.664;2022-07-04T12:53:54;1.10;;;0.45;;
13731;SDS011;6937;56.096;12.664;2022-07-04T12:59:16;1.92;;;0.50;;
13731;SDS011;6937;56.096;12.664;2022-07-04T13:01:43;2.30;;;0.50;;
13731;SDS011;6937;56.096;12.664;2022-07-04T13:04:09;0.63;;;0.40;;
13731;SDS011;6937;56.096;12.664;2022-07-04T13:06:35;1.63;;;0.60;;
13731;SDS011;6937;56.096;12.664;2022-07-04T13:09:01;1.50;;;0.60;;
13731;SDS011;6937;56.096;12.664;2022-07-04T13:11:27;2.22;;;0.50;;
13731;SDS011;6937;56.096;12.664;2022-07-04T13:14:11;2.63;;;0.70;;
13731;SDS011;6937;56.096;12.664;2022-07-04T13:16:37;1.02;;;0.50;;
13731;SDS011;6937;56.096;12.664;2022-07-04T13:19:02;1.38;;;0.60;;
13731;SDS011;6937;56.096;12.664;2022-07-04T13:21:27;0.77;;;0.40;;
13731;SDS011;6937;56.096;12.664;2022-07-04T13:23:53;1.30;;;0.50;;
13731;SDS011;6937;56.096;12.664;2022-07-04T13:26:18;0.73;;;0.47;;
13731;SDS011;6937;56.096;12.664;2022-07-04T13:28:44;1.33;;;0.60;;
13731;SDS011;6937;56.096;12.664;2022-07-04T13:31:10;1.02;;;0.43;;
13731;SDS011;6937;56.096;12.664;2022-07-04T13:33:36;0.93;;;0.52;;
13731;SDS011;6937;56.096;12.664;2022-07-04T13:36:02;1.27;;;0.60;;
13731;SDS011;6937;56.096;12.664;2022-07-04T13:38:28;1.50;;;0.60;;
13731;SDS011;6937;56.096;12.664;2022-07-04T13:40:54;1.92;;;0.55;;
13731;SDS011;6937;56.096;12.664;2022-07-04T13:43:22;2.15;;;0.70;;
13731;SDS011;6937;56.096;12.664;2022-07-04T13:45:48;3.88;;;1.05;;
13731;SDS011;6937;56.096;12.664;2022-07-04T13:48:14;6.63;;;1.10;;
13731;SDS011;6937;56.096;12.664;2022-07-04T13:50:39;1.98;;;1.00;;
13731;SDS011;6937;56.096;12.664;2022-07-04T13:53:05;2.33;;;0.75;;
13731;SDS011;6937;56.096;12.664;2022-07-04T13:55:32;2.20;;;0.85;;
13731;SDS011;6937;56.096;12.664;2022-07-04T13:58:01;3.03;;;1.00;;
13731;SDS011;6937;56.096;12.664;2022-07-04T14:00:36;2.45;;;0.93;;
13731;SDS011;6937;56.096;12.664;2022-07-04T14:03:03;2.63;;;0.90;;
13731;SDS011;6937;56.096;12.664;2022-07-04T14:05:29;2.75;;;0.80;;
13731;SDS011;6937;56.096;12.664;2022-07-04T14:07:56;4.10;;;0.98;;
13731;SDS011;6937;56.096;12.664;2022-07-04T14:10:21;3.60;;;0.90;;
13731;SDS011;6937;56.096;12.664;2022-07-04T14:12:47;3.03;;;1.00;;
13731;SDS011;6937;56.096;12.664;2022-07-04T14:15:12;3.83;;;1.15;;
13731;SDS011;6937;56.096;12.664;2022-07-04T14:17:38;6.10;;;1.60;;
13731;SDS011;6937;56.096;12.664;2022-07-04T14:20:05;11.85;;;3.10;;
13731;SDS011;6937;56.096;12.664;2022-07-04T14:22:32;8.98;;;1.98;;
13731;SDS011;6937;56.096;12.664;2022-07-04T14:24:57;3.80;;;1.30;;
13731;SDS011;6937;56.096;12.664;2022-07-04T14:27:23;3.15;;;0.95;;
13731;SDS011;6937;56.096;12.664;2022-07-04T14:29:48;2.67;;;1.10;;
13731;SDS011;6937;56.096;12.664;2022-07-04T14:32:14;2.03;;;0.80;;
13731;SDS011;6937;56.096;12.664;2022-07-04T14:34:39;3.65;;;1.25;;
13731;SDS011;6937;56.096;12.664;2022-07-04T14:37:05;1.52;;;0.75;;
13731;SDS011;6937;56.096;12.664;2022-07-04T14:39:30;2.72;;;0.90;;
13731;SDS011;6937;56.096;12.664;2022-07-04T14:41:56;1.60;;;0.90;;
13731;SDS011;6937;56.096;12.664;2022-07-04T14:44:21;2.15;;;0.85;;
13731;SDS011;6937;56.096;12.664;2022-07-04T14:46:47;1.77;;;0.80;;
13731;SDS011;6937;56.096;12.664;2022-07-04T14:49:12;2.90;;;1.00;;
13731;SDS011;6937;56.096;12.664;2022-07-04T14:51:37;2.55;;;1.10;;
13731;SDS011;6937;56.096;12.664;2022-07-04T14:54:09;1.90;;;1.08;;
13731;SDS011;6937;56.096;12.664;2022-07-04T14:56:35;2.33;;;0.90;;
13731;SDS011;6937;56.096;12.664;2022-07-04T14:59:01;3.15;;;0.93;;
13731;SDS011;6937;56.096;12.664;2022-07-04T15:01:27;3.22;;;0.70;;
13731;SDS011;6937;56.096;12.664;2022-07-04T15:03:53;4.28;;;0.95;;
13731;SDS011;6937;56.096;12.664;2022-07-04T15:06:19;1.65;;;0.75;;
13731;SDS011;6937;56.096;12.664;2022-07-04T15:08:44;1.40;;;0.75;;
13731;SDS011;6937;56.096;12.664;2022-07-04T15:11:10;2.03;;;0.90;;
13731;SDS011;6937;56.096;12.664;2022-07-04T15:13:35;0.88;;;0.70;;
13731;SDS011;6937;56.096;12.664;2022-07-04T15:16:00;1.27;;;0.60;;
13731;SDS011;6937;56.096;12.664;2022-07-04T15:18:26;1.35;;;0.70;;
13731;SDS011;6937;56.096;12.664;2022-07-04T15:20:51;1.65;;;0.75;;
13731;SDS011;6937;56.096;12.664;2022-07-04T15:23:35;1.00;;;0.68;;
13731;SDS011;6937;56.096;12.664;2022-07-04T15:26:19;1.55;;;0.70;;
13731;SDS011;6937;56.096;12.664;2022-07-04T15:28:45;3.10;;;0.70;;
13731;SDS011;6937;56.096;12.664;2022-07-04T15:31:10;1.95;;;0.90;;
13731;SDS011;6937;56.096;12.664;2022-07-04T15:33:37;1.90;;;0.77;;
13731;SDS011;6937;56.096;12.664;2022-07-04T15:36:03;1.75;;;0.93;;
13731;SDS011;6937;56.096;12.664;2022-07-04T15:38:29;2.63;;;0.98;;
13731;SDS011;6937;56.096;12.664;2022-07-04T15:40:55;2.03;;;0.80;;